TAF KISM
AMD KISM 090843Z 0909/1006 00000KT P6SM SCT007 OVC015 TEMPO 0909/0913 4SM BR BKN007 FM091400 15004KT P6SM SCT010 SCT250 FM091800 24005KT P6SM SCT035 SCT250 FM100100 05003KT P6SM FEW050=
METAR KISM
WC KISM
WS KISM
WV KISM